sensor_id;sensor_type;location;lat;lon;timestamp;P1;durP1;ratioP1;P2;durP2;ratioP2
12072;SDS011;6098;49.004;8.372;2023-02-19T00:10:44;3.97;;;3.47;;
12072;SDS011;6098;49.004;8.372;2023-02-19T00:25:36;3.72;;;3.36;;
12072;SDS011;6098;49.004;8.372;2023-02-19T00:40:27;4.39;;;3.08;;
12072;SDS011;6098;49.004;8.372;2023-02-19T00:55:21;3.77;;;2.56;;
12072;SDS011;6098;49.004;8.372;2023-02-19T01:10:15;3.69;;;2.58;;
12072;SDS011;6098;49.004;8.372;2023-02-19T01:25:08;3.01;;;2.56;;
12072;SDS011;6098;49.004;8.372;2023-02-19T01:40:00;2.88;;;2.07;;
12072;SDS011;6098;49.004;8.372;2023-02-19T01:54:52;2.63;;;2.04;;
12072;SDS011;6098;49.004;8.372;2023-02-19T02:09:44;1.83;;;1.71;;
12072;SDS011;6098;49.004;8.372;2023-02-19T02:40:11;1.30;;;1.20;;
12072;SDS011;6098;49.004;8.372;2023-02-19T02:55:06;1.54;;;1.43;;
12072;SDS011;6098;49.004;8.372;2023-02-19T03:09:57;1.98;;;1.41;;
12072;SDS011;6098;49.004;8.372;2023-02-19T03:24:56;1.70;;;1.42;;
12072;SDS011;6098;49.004;8.372;2023-02-19T03:40:20;1.48;;;1.30;;
12072;SDS011;6098;49.004;8.372;2023-02-19T03:55:17;0.90;;;0.90;;
12072;SDS011;6098;49.004;8.372;2023-02-19T04:10:11;2.42;;;1.20;;
12072;SDS011;6098;49.004;8.372;2023-02-19T04:25:04;1.30;;;1.20;;
12072;SDS011;6098;49.004;8.372;2023-02-19T04:39:56;2.04;;;1.21;;
12072;SDS011;6098;49.004;8.372;2023-02-19T04:54:53;1.47;;;1.00;;
12072;SDS011;6098;49.004;8.372;2023-02-19T05:09:43;1.13;;;1.03;;
12072;SDS011;6098;49.004;8.372;2023-02-19T05:24:36;1.76;;;0.99;;
12072;SDS011;6098;49.004;8.372;2023-02-19T05:39:26;1.08;;;0.98;;
12072;SDS011;6098;49.004;8.372;2023-02-19T05:54:17;1.00;;;0.90;;
12072;SDS011;6098;49.004;8.372;2023-02-19T06:09:09;0.96;;;0.83;;
12072;SDS011;6098;49.004;8.372;2023-02-19T06:24:04;1.17;;;1.00;;
12072;SDS011;6098;49.004;8.372;2023-02-19T06:39:02;1.50;;;1.21;;
12072;SDS011;6098;49.004;8.372;2023-02-19T06:53:54;1.56;;;1.19;;
12072;SDS011;6098;49.004;8.372;2023-02-19T07:08:48;1.17;;;1.07;;
12072;SDS011;6098;49.004;8.372;2023-02-19T07:23:42;1.84;;;1.50;;
12072;SDS011;6098;49.004;8.372;2023-02-19T07:38:34;2.48;;;1.68;;
12072;SDS011;6098;49.004;8.372;2023-02-19T07:53:27;2.36;;;1.80;;
12072;SDS011;6098;49.004;8.372;2023-02-19T08:08:20;2.68;;;2.31;;
12072;SDS011;6098;49.004;8.372;2023-02-19T08:25:39;3.39;;;2.30;;
12072;SDS011;6098;49.004;8.372;2023-02-19T08:28:06;2.64;;;2.26;;
12072;SDS011;6098;49.004;8.372;2023-02-19T08:42:28;2.99;;;2.32;;
12072;SDS011;6098;49.004;8.372;2023-02-19T08:57:22;3.29;;;2.37;;
12072;SDS011;6098;49.004;8.372;2023-02-19T09:12:16;3.09;;;2.07;;
12072;SDS011;6098;49.004;8.372;2023-02-19T09:27:13;2.57;;;2.28;;
12072;SDS011;6098;49.004;8.372;2023-02-19T09:42:03;4.28;;;2.47;;
12072;SDS011;6098;49.004;8.372;2023-02-19T09:56:56;2.06;;;1.87;;
12072;SDS011;6098;49.004;8.372;2023-02-19T10:11:52;2.24;;;1.94;;
12072;SDS011;6098;49.004;8.372;2023-02-19T10:26:53;3.41;;;2.00;;
12072;SDS011;6098;49.004;8.372;2023-02-19T10:41:49;2.74;;;2.38;;
12072;SDS011;6098;49.004;8.372;2023-02-19T11:12:22;4.18;;;2.14;;
12072;SDS011;6098;49.004;8.372;2023-02-19T11:27:15;2.53;;;1.86;;
12072;SDS011;6098;49.004;8.372;2023-02-19T12:43:04;3.09;;;2.33;;
12072;SDS011;6098;49.004;8.372;2023-02-19T12:58:04;6.50;;;2.30;;
12072;SDS011;6098;49.004;8.372;2023-02-19T13:13:02;3.76;;;1.89;;
12072;SDS011;6098;49.004;8.372;2023-02-19T13:27:58;3.48;;;1.67;;
12072;SDS011;6098;49.004;8.372;2023-02-19T13:42:53;4.44;;;1.99;;
12072;SDS011;6098;49.004;8.372;2023-02-19T13:57:45;3.88;;;2.06;;
12072;SDS011;6098;49.004;8.372;2023-02-19T14:12:36;3.71;;;1.98;;
12072;SDS011;6098;49.004;8.372;2023-02-19T14:27:28;3.58;;;2.47;;
12072;SDS011;6098;49.004;8.372;2023-02-19T14:42:22;3.51;;;2.11;;
12072;SDS011;6098;49.004;8.372;2023-02-19T14:57:18;3.36;;;1.72;;
12072;SDS011;6098;49.004;8.372;2023-02-19T15:27:04;3.20;;;2.10;;
12072;SDS011;6098;49.004;8.372;2023-02-19T15:41:58;4.48;;;2.40;;
12072;SDS011;6098;49.004;8.372;2023-02-19T15:56:51;4.61;;;2.46;;
12072;SDS011;6098;49.004;8.372;2023-02-19T16:26:47;5.46;;;2.22;;
12072;SDS011;6098;49.004;8.372;2023-02-19T16:56:42;6.41;;;2.71;;
12072;SDS011;6098;49.004;8.372;2023-02-19T17:11:35;4.49;;;2.27;;
12072;SDS011;6098;49.004;8.372;2023-02-19T17:26:29;5.02;;;1.91;;
12072;SDS011;6098;49.004;8.372;2023-02-19T17:41:21;4.24;;;2.38;;
12072;SDS011;6098;49.004;8.372;2023-02-19T18:11:07;4.88;;;2.68;;
12072;SDS011;6098;49.004;8.372;2023-02-19T18:26:01;4.31;;;2.12;;
12072;SDS011;6098;49.004;8.372;2023-02-19T18:40:52;3.96;;;2.44;;
12072;SDS011;6098;49.004;8.372;2023-02-19T18:55:44;5.59;;;2.32;;
12072;SDS011;6098;49.004;8.372;2023-02-19T19:10:36;5.32;;;2.30;;
12072;SDS011;6098;49.004;8.372;2023-02-19T19:25:28;6.44;;;3.82;;
12072;SDS011;6098;49.004;8.372;2023-02-19T19:40:20;4.99;;;2.74;;
12072;SDS011;6098;49.004;8.372;2023-02-19T19:55:12;4.47;;;2.88;;
12072;SDS011;6098;49.004;8.372;2023-02-19T20:10:08;5.37;;;2.81;;
12072;SDS011;6098;49.004;8.372;2023-02-19T20:25:01;6.07;;;2.71;;
12072;SDS011;6098;49.004;8.372;2023-02-19T20:39:55;7.11;;;3.08;;
12072;SDS011;6098;49.004;8.372;2023-02-19T20:54:52;7.50;;;3.37;;
12072;SDS011;6098;49.004;8.372;2023-02-19T21:09:42;6.80;;;3.57;;
12072;SDS011;6098;49.004;8.372;2023-02-19T21:24:33;6.61;;;3.92;;
12072;SDS011;6098;49.004;8.372;2023-02-19T21:39:28;5.31;;;3.70;;
12072;SDS011;6098;49.004;8.372;2023-02-19T21:54:21;7.10;;;3.66;;
12072;SDS011;6098;49.004;8.372;2023-02-19T22:09:11;7.67;;;3.68;;
12072;SDS011;6098;49.004;8.372;2023-02-19T22:24:04;6.89;;;3.97;;
12072;SDS011;6098;49.004;8.372;2023-02-19T22:38:57;6.16;;;3.81;;
12072;SDS011;6098;49.004;8.372;2023-02-19T22:53:52;7.66;;;4.08;;
12072;SDS011;6098;49.004;8.372;2023-02-19T23:08:44;7.54;;;3.79;;
12072;SDS011;6098;49.004;8.372;2023-02-19T23:23:36;6.82;;;3.93;;
12072;SDS011;6098;49.004;8.372;2023-02-19T23:38:29;6.97;;;4.01;;
12072;SDS011;6098;49.004;8.372;2023-02-19T23:53:21;7.33;;;4.13;;
